sensor_id;sensor_type;location;lat;lon;timestamp;P1;durP1;ratioP1;P2;durP2;ratioP2
22284;SDS011;11311;52.192;20.900;2022-10-14T16:28:51;30.13;;;23.95;;
22284;SDS011;11311;52.192;20.900;2022-10-14T16:33:52;34.25;;;24.25;;
22284;SDS011;11311;52.192;20.900;2022-10-14T16:36:23;31.42;;;25.60;;
22284;SDS011;11311;52.192;20.900;2022-10-14T16:38:55;30.73;;;24.73;;
22284;SDS011;11311;52.192;20.900;2022-10-14T16:41:25;30.48;;;24.75;;
22284;SDS011;11311;52.192;20.900;2022-10-14T16:43:56;36.80;;;26.50;;
22284;SDS011;11311;52.192;20.900;2022-10-14T16:46:26;34.13;;;24.67;;
22284;SDS011;11311;52.192;20.900;2022-10-14T16:49:09;32.42;;;25.50;;
22284;SDS011;11311;52.192;20.900;2022-10-14T16:51:38;36.10;;;26.33;;
22284;SDS011;11311;52.192;20.900;2022-10-14T16:54:07;36.92;;;26.23;;
22284;SDS011;11311;52.192;20.900;2022-10-14T16:59:24;31.10;;;26.60;;
22284;SDS011;11311;52.192;20.900;2022-10-14T17:01:54;35.53;;;27.52;;
22284;SDS011;11311;52.192;20.900;2022-10-14T17:04:23;34.97;;;26.52;;
22284;SDS011;11311;52.192;20.900;2022-10-14T17:06:58;35.25;;;27.65;;
22284;SDS011;11311;52.192;20.900;2022-10-14T17:09:34;34.05;;;27.85;;
22284;SDS011;11311;52.192;20.900;2022-10-14T17:12:05;36.67;;;29.70;;
22284;SDS011;11311;52.192;20.900;2022-10-14T17:14:41;36.88;;;28.80;;
22284;SDS011;11311;52.192;20.900;2022-10-14T17:17:10;36.75;;;30.13;;
22284;SDS011;11311;52.192;20.900;2022-10-14T17:19:39;35.17;;;30.33;;
22284;SDS011;11311;52.192;20.900;2022-10-14T17:22:10;35.72;;;29.73;;
22284;SDS011;11311;52.192;20.900;2022-10-14T17:24:39;37.95;;;30.25;;
22284;SDS011;11311;52.192;20.900;2022-10-14T17:27:08;55.05;;;32.95;;
22284;SDS011;11311;52.192;20.900;2022-10-14T17:29:37;36.08;;;31.92;;
22284;SDS011;11311;52.192;20.900;2022-10-14T17:32:09;37.65;;;31.52;;
22284;SDS011;11311;52.192;20.900;2022-10-14T17:34:38;38.67;;;32.63;;
22284;SDS011;11311;52.192;20.900;2022-10-14T17:37:07;41.75;;;31.02;;
22284;SDS011;11311;52.192;20.900;2022-10-14T17:39:36;38.25;;;29.60;;
22284;SDS011;11311;52.192;20.900;2022-10-14T17:42:05;42.13;;;34.72;;
22284;SDS011;11311;52.192;20.900;2022-10-14T17:44:34;45.35;;;35.80;;
22284;SDS011;11311;52.192;20.900;2022-10-14T17:47:11;46.65;;;37.55;;
22284;SDS011;11311;52.192;20.900;2022-10-14T17:49:39;41.63;;;35.55;;
22284;SDS011;11311;52.192;20.900;2022-10-14T17:52:09;56.42;;;38.70;;
22284;SDS011;11311;52.192;20.900;2022-10-14T17:54:39;46.22;;;35.13;;
22284;SDS011;11311;52.192;20.900;2022-10-14T17:57:09;45.67;;;36.83;;
22284;SDS011;11311;52.192;20.900;2022-10-14T17:59:38;44.22;;;37.47;;
22284;SDS011;11311;52.192;20.900;2022-10-14T18:02:11;47.55;;;36.88;;
22284;SDS011;11311;52.192;20.900;2022-10-14T18:04:44;48.65;;;35.25;;
22284;SDS011;11311;52.192;20.900;2022-10-14T18:07:14;45.28;;;37.42;;
22284;SDS011;11311;52.192;20.900;2022-10-14T18:09:45;47.78;;;39.63;;
22284;SDS011;11311;52.192;20.900;2022-10-14T18:12:15;43.33;;;38.58;;
22284;SDS011;11311;52.192;20.900;2022-10-14T18:14:44;52.38;;;40.30;;
22284;SDS011;11311;52.192;20.900;2022-10-14T18:17:15;48.05;;;40.80;;
22284;SDS011;11311;52.192;20.900;2022-10-14T18:22:18;51.38;;;41.97;;
22284;SDS011;11311;52.192;20.900;2022-10-14T18:24:47;53.63;;;42.55;;
22284;SDS011;11311;52.192;20.900;2022-10-14T18:27:16;52.90;;;40.88;;
22284;SDS011;11311;52.192;20.900;2022-10-14T18:29:45;46.10;;;40.40;;
22284;SDS011;11311;52.192;20.900;2022-10-14T18:32:15;50.67;;;39.63;;
22284;SDS011;11311;52.192;20.900;2022-10-14T18:37:13;48.78;;;39.53;;
22284;SDS011;11311;52.192;20.900;2022-10-14T18:39:44;53.28;;;40.70;;
22284;SDS011;11311;52.192;20.900;2022-10-14T18:42:13;50.30;;;41.08;;
22284;SDS011;11311;52.192;20.900;2022-10-14T18:44:47;53.90;;;40.03;;
22284;SDS011;11311;52.192;20.900;2022-10-14T18:47:17;48.78;;;43.22;;
22284;SDS011;11311;52.192;20.900;2022-10-14T18:49:46;48.17;;;39.58;;
22284;SDS011;11311;52.192;20.900;2022-10-14T18:52:15;51.20;;;41.90;;
22284;SDS011;11311;52.192;20.900;2022-10-14T18:54:47;49.35;;;39.42;;
22284;SDS011;11311;52.192;20.900;2022-10-14T18:57:17;55.22;;;41.78;;
22284;SDS011;11311;52.192;20.900;2022-10-14T18:59:48;50.55;;;42.10;;
22284;SDS011;11311;52.192;20.900;2022-10-14T19:02:18;55.70;;;38.88;;
22284;SDS011;11311;52.192;20.900;2022-10-14T19:04:47;50.15;;;36.22;;
22284;SDS011;11311;52.192;20.900;2022-10-14T19:07:16;53.25;;;42.05;;
22284;SDS011;11311;52.192;20.900;2022-10-14T19:09:44;53.88;;;41.25;;
22284;SDS011;11311;52.192;20.900;2022-10-14T19:12:15;49.37;;;39.83;;
22284;SDS011;11311;52.192;20.900;2022-10-14T19:15:02;54.53;;;40.15;;
22284;SDS011;11311;52.192;20.900;2022-10-14T19:17:33;51.43;;;40.07;;
22284;SDS011;11311;52.192;20.900;2022-10-14T19:20:02;46.17;;;40.50;;
22284;SDS011;11311;52.192;20.900;2022-10-14T19:22:34;52.63;;;41.97;;
22284;SDS011;11311;52.192;20.900;2022-10-14T19:25:07;48.78;;;40.33;;
22284;SDS011;11311;52.192;20.900;2022-10-14T19:27:36;53.20;;;42.20;;
22284;SDS011;11311;52.192;20.900;2022-10-14T19:30:05;51.00;;;42.15;;
22284;SDS011;11311;52.192;20.900;2022-10-14T19:32:36;56.55;;;41.80;;
22284;SDS011;11311;52.192;20.900;2022-10-14T19:35:06;51.83;;;40.92;;
22284;SDS011;11311;52.192;20.900;2022-10-14T19:37:35;55.30;;;42.42;;
22284;SDS011;11311;52.192;20.900;2022-10-14T19:40:04;66.05;;;44.28;;
22284;SDS011;11311;52.192;20.900;2022-10-14T19:42:34;45.38;;;40.47;;
22284;SDS011;11311;52.192;20.900;2022-10-14T19:45:03;52.90;;;43.40;;
22284;SDS011;11311;52.192;20.900;2022-10-14T19:47:32;52.08;;;42.40;;
22284;SDS011;11311;52.192;20.900;2022-10-14T19:50:02;49.97;;;43.00;;
22284;SDS011;11311;52.192;20.900;2022-10-14T19:52:31;55.85;;;38.67;;
22284;SDS011;11311;52.192;20.900;2022-10-14T19:55:00;55.30;;;42.45;;
22284;SDS011;11311;52.192;20.900;2022-10-14T19:57:29;49.15;;;42.30;;
22284;SDS011;11311;52.192;20.900;2022-10-14T19:59:57;53.35;;;42.75;;
22284;SDS011;11311;52.192;20.900;2022-10-14T20:02:26;57.08;;;44.40;;
22284;SDS011;11311;52.192;20.900;2022-10-14T20:04:55;50.42;;;40.88;;
22284;SDS011;11311;52.192;20.900;2022-10-14T20:07:27;48.88;;;40.10;;
22284;SDS011;11311;52.192;20.900;2022-10-14T20:09:56;54.47;;;42.83;;
22284;SDS011;11311;52.192;20.900;2022-10-14T20:12:28;52.05;;;44.63;;
22284;SDS011;11311;52.192;20.900;2022-10-14T20:14:57;58.20;;;44.80;;
22284;SDS011;11311;52.192;20.900;2022-10-14T20:17:26;53.28;;;44.45;;
22284;SDS011;11311;52.192;20.900;2022-10-14T20:19:55;60.80;;;45.67;;
22284;SDS011;11311;52.192;20.900;2022-10-14T20:22:23;56.55;;;46.25;;
22284;SDS011;11311;52.192;20.900;2022-10-14T20:24:54;57.58;;;46.03;;
22284;SDS011;11311;52.192;20.900;2022-10-14T20:27:22;65.00;;;44.33;;
22284;SDS011;11311;52.192;20.900;2022-10-14T20:29:52;51.95;;;43.58;;
22284;SDS011;11311;52.192;20.900;2022-10-14T20:32:21;63.97;;;48.08;;
22284;SDS011;11311;52.192;20.900;2022-10-14T20:34:49;58.10;;;46.95;;
22284;SDS011;11311;52.192;20.900;2022-10-14T20:37:18;60.10;;;46.78;;
22284;SDS011;11311;52.192;20.900;2022-10-14T20:39:54;68.18;;;48.45;;
22284;SDS011;11311;52.192;20.900;2022-10-14T20:42:23;54.83;;;46.80;;
22284;SDS011;11311;52.192;20.900;2022-10-14T20:44:52;60.15;;;50.47;;
22284;SDS011;11311;52.192;20.900;2022-10-14T20:47:21;63.50;;;50.72;;
22284;SDS011;11311;52.192;20.900;2022-10-14T20:49:50;62.58;;;50.45;;
22284;SDS011;11311;52.192;20.900;2022-10-14T20:52:19;64.45;;;51.22;;
22284;SDS011;11311;52.192;20.900;2022-10-14T20:54:48;63.83;;;50.33;;
22284;SDS011;11311;52.192;20.900;2022-10-14T20:57:18;64.43;;;45.17;;
22284;SDS011;11311;52.192;20.900;2022-10-14T21:02:16;69.28;;;50.80;;
22284;SDS011;11311;52.192;20.900;2022-10-14T21:07:15;65.13;;;52.80;;
22284;SDS011;11311;52.192;20.900;2022-10-14T21:09:46;66.57;;;51.85;;
22284;SDS011;11311;52.192;20.900;2022-10-14T21:12:16;71.50;;;51.72;;
22284;SDS011;11311;52.192;20.900;2022-10-14T21:14:48;82.83;;;54.47;;
22284;SDS011;11311;52.192;20.900;2022-10-14T21:17:17;74.93;;;52.80;;
22284;SDS011;11311;52.192;20.900;2022-10-14T21:19:46;69.82;;;52.30;;
22284;SDS011;11311;52.192;20.900;2022-10-14T21:22:15;65.53;;;45.75;;
22284;SDS011;11311;52.192;20.900;2022-10-14T21:24:44;71.30;;;48.75;;
22284;SDS011;11311;52.192;20.900;2022-10-14T21:27:12;71.68;;;52.72;;
22284;SDS011;11311;52.192;20.900;2022-10-14T21:29:41;66.38;;;49.85;;
22284;SDS011;11311;52.192;20.900;2022-10-14T21:32:11;66.55;;;51.53;;
22284;SDS011;11311;52.192;20.900;2022-10-14T21:34:40;73.40;;;54.25;;
22284;SDS011;11311;52.192;20.900;2022-10-14T21:37:08;69.05;;;55.15;;
22284;SDS011;11311;52.192;20.900;2022-10-14T21:39:38;72.88;;;56.95;;
22284;SDS011;11311;52.192;20.900;2022-10-14T21:42:07;75.20;;;56.47;;
22284;SDS011;11311;52.192;20.900;2022-10-14T21:44:36;71.60;;;54.75;;
22284;SDS011;11311;52.192;20.900;2022-10-14T21:47:05;79.30;;;60.17;;
22284;SDS011;11311;52.192;20.900;2022-10-14T21:49:38;78.47;;;56.58;;
22284;SDS011;11311;52.192;20.900;2022-10-14T21:52:06;75.05;;;53.08;;
22284;SDS011;11311;52.192;20.900;2022-10-14T21:54:35;82.90;;;59.63;;
22284;SDS011;11311;52.192;20.900;2022-10-14T21:57:04;78.05;;;59.00;;
22284;SDS011;11311;52.192;20.900;2022-10-14T21:59:33;76.07;;;53.78;;
22284;SDS011;11311;52.192;20.900;2022-10-14T22:02:02;79.28;;;59.10;;
22284;SDS011;11311;52.192;20.900;2022-10-14T22:04:30;78.57;;;60.30;;
22284;SDS011;11311;52.192;20.900;2022-10-14T22:07:05;79.47;;;51.30;;
22284;SDS011;11311;52.192;20.900;2022-10-14T22:09:39;75.43;;;55.08;;
22284;SDS011;11311;52.192;20.900;2022-10-14T22:12:08;81.28;;;60.20;;
22284;SDS011;11311;52.192;20.900;2022-10-14T22:14:38;87.50;;;61.13;;
22284;SDS011;11311;52.192;20.900;2022-10-14T22:17:07;85.88;;;61.95;;
22284;SDS011;11311;52.192;20.900;2022-10-14T22:19:36;83.78;;;56.33;;
22284;SDS011;11311;52.192;20.900;2022-10-14T22:22:08;89.35;;;62.88;;
22284;SDS011;11311;52.192;20.900;2022-10-14T22:24:37;83.53;;;59.63;;
22284;SDS011;11311;52.192;20.900;2022-10-14T22:27:06;83.00;;;62.75;;
22284;SDS011;11311;52.192;20.900;2022-10-14T22:29:34;85.80;;;63.67;;
22284;SDS011;11311;52.192;20.900;2022-10-14T22:32:03;96.60;;;65.72;;
22284;SDS011;11311;52.192;20.900;2022-10-14T22:34:32;80.85;;;55.78;;
22284;SDS011;11311;52.192;20.900;2022-10-14T22:37:01;107.97;;;68.40;;
22284;SDS011;11311;52.192;20.900;2022-10-14T22:39:31;82.82;;;52.30;;
22284;SDS011;11311;52.192;20.900;2022-10-14T22:44:28;85.70;;;62.15;;
22284;SDS011;11311;52.192;20.900;2022-10-14T22:46:57;90.43;;;57.95;;
22284;SDS011;11311;52.192;20.900;2022-10-14T22:49:26;99.25;;;68.60;;
22284;SDS011;11311;52.192;20.900;2022-10-14T22:51:56;101.72;;;69.72;;
22284;SDS011;11311;52.192;20.900;2022-10-14T22:54:24;89.47;;;63.13;;
22284;SDS011;11311;52.192;20.900;2022-10-14T22:56:55;92.90;;;67.50;;
22284;SDS011;11311;52.192;20.900;2022-10-14T22:59:24;91.13;;;60.90;;
22284;SDS011;11311;52.192;20.900;2022-10-14T23:01:52;101.22;;;68.35;;
22284;SDS011;11311;52.192;20.900;2022-10-14T23:04:21;93.80;;;67.72;;
22284;SDS011;11311;52.192;20.900;2022-10-14T23:09:21;92.82;;;56.55;;
22284;SDS011;11311;52.192;20.900;2022-10-14T23:11:50;95.13;;;62.88;;
22284;SDS011;11311;52.192;20.900;2022-10-14T23:14:20;100.65;;;66.50;;
22284;SDS011;11311;52.192;20.900;2022-10-14T23:16:49;102.80;;;65.25;;
22284;SDS011;11311;52.192;20.900;2022-10-14T23:19:17;96.78;;;66.50;;
22284;SDS011;11311;52.192;20.900;2022-10-14T23:21:46;100.38;;;63.47;;
22284;SDS011;11311;52.192;20.900;2022-10-14T23:24:15;104.90;;;64.57;;
22284;SDS011;11311;52.192;20.900;2022-10-14T23:26:44;104.38;;;69.55;;
22284;SDS011;11311;52.192;20.900;2022-10-14T23:29:13;114.10;;;72.53;;
22284;SDS011;11311;52.192;20.900;2022-10-14T23:31:42;110.40;;;69.53;;
22284;SDS011;11311;52.192;20.900;2022-10-14T23:34:12;115.22;;;70.43;;
22284;SDS011;11311;52.192;20.900;2022-10-14T23:36:41;115.35;;;73.43;;
22284;SDS011;11311;52.192;20.900;2022-10-14T23:39:10;114.47;;;73.68;;
22284;SDS011;11311;52.192;20.900;2022-10-14T23:41:39;112.63;;;70.63;;
22284;SDS011;11311;52.192;20.900;2022-10-14T23:44:08;108.85;;;66.95;;
22284;SDS011;11311;52.192;20.900;2022-10-14T23:46:38;115.63;;;72.07;;
22284;SDS011;11311;52.192;20.900;2022-10-14T23:49:08;108.28;;;69.20;;
22284;SDS011;11311;52.192;20.900;2022-10-14T23:51:52;100.43;;;68.88;;
22284;SDS011;11311;52.192;20.900;2022-10-14T23:54:21;108.32;;;69.35;;
22284;SDS011;11311;52.192;20.900;2022-10-14T23:56:50;116.15;;;71.95;;
22284;SDS011;11311;52.192;20.900;2022-10-14T23:59:19;119.57;;;72.97;;
